Time;durP1;ratioP1;P1;durP2;ratioP2;P2;SDS_P1;SDS_P2;PMS_P1;PMS_P2;Temp;Humidity;BMP_temperature;BMP_pressure;BME280_temperature;BME280_humidity;BME280_pressure;Samples;Min_cycle;Max_cycle;Signal;HPM_P1;HPM_P2
2021/04/02 00:02:30;;;;;;;29.00;20.63;;;;;;;14.41;60.49;155061.25;5051681;28;20421;-77
2021/04/02 00:05:06;;;;;;;33.70;23.37;;;;;;;14.36;60.78;155049.59;5034018;28;20502;-77
2021/04/02 00:07:43;;;;;;;31.37;21.90;;;;;;;14.28;61.09;155028.75;5015066;28;20949;-77
2021/04/02 00:10:20;;;;;;;28.17;21.13;;;;;;;14.23;61.16;155015.78;5014881;28;20446;-77
2021/04/02 00:12:55;;;;;;;34.73;23.53;;;;;;;14.21;61.43;155010.59;5016440;28;20450;-77
2021/04/02 00:15:31;;;;;;;32.00;23.00;;;;;;;14.19;61.66;155005.34;5034188;28;20501;-77
2021/04/02 00:18:08;;;;;;;40.73;22.40;;;;;;;14.13;61.70;154988.50;5034342;28;20464;-77
2021/04/02 00:20:43;;;;;;;31.43;23.27;;;;;;;14.09;62.28;154978.09;5015021;28;20449;-77
2021/04/02 00:23:19;;;;;;;32.97;22.80;;;;;;;13.98;62.37;154950.81;5022998;28;20476;-77
2021/04/02 00:25:55;;;;;;;31.70;23.33;;;;;;;13.95;62.46;154944.34;5050467;28;20450;-77
2021/04/02 00:28:31;;;;;;;35.00;22.67;;;;;;;13.89;63.04;154928.81;5053337;28;20456;-87
2021/04/02 00:31:06;;;;;;;30.77;23.10;;;;;;;13.87;63.09;154922.31;5035365;28;20988;-87
2021/04/02 00:33:41;;;;;;;35.47;23.20;;;;;;;13.84;63.00;154914.50;5035541;28;20806;-87
2021/04/02 00:36:16;;;;;;;32.00;23.73;;;;;;;13.81;63.44;154906.72;5039140;28;20437;-87
2021/04/02 00:38:51;;;;;;;30.17;23.50;;;;;;;13.77;63.39;154896.31;5044753;28;20441;-87
2021/04/02 00:41:26;;;;;;;32.07;22.80;;;;;;;13.75;63.38;154892.44;5055340;28;20416;-87
2021/04/02 00:44:03;;;;;;;33.03;25.10;;;;;;;13.70;63.64;154878.16;5043257;28;20469;-86
2021/04/02 00:46:38;;;;;;;34.17;25.10;;;;;;;13.69;63.62;154875.53;5024143;28;20433;-87
2021/04/02 00:49:14;;;;;;;38.10;24.67;;;;;;;13.62;64.36;154857.38;5039476;28;20457;-87
2021/04/02 00:51:50;;;;;;;33.20;22.20;;;;;;;13.54;64.47;154837.91;5055635;28;20444;-87
2021/04/02 00:54:25;;;;;;;33.20;25.00;;;;;;;13.48;64.79;154821.03;5039358;28;20452;-87
2021/04/02 00:57:00;;;;;;;35.03;24.67;;;;;;;13.42;65.31;154806.81;5039038;28;20448;-86
2021/04/02 00:59:36;;;;;;;32.07;22.80;;;;;;;13.41;65.12;154805.50;5038652;28;20484;-87
2021/04/02 01:02:11;;;;;;;40.53;29.27;;;;;;;13.21;65.88;154753.56;5038767;28;20454;-87
2021/04/02 01:04:47;;;;;;;39.17;26.23;;;;;;;13.10;66.55;154723.75;5055612;28;20555;-87
2021/04/02 01:07:23;;;;;;;36.23;24.30;;;;;;;13.06;66.62;154713.28;5055294;28;20439;-87
2021/04/02 01:09:58;;;;;;;36.43;26.03;;;;;;;12.95;67.39;154684.75;5040454;28;20431;-87
2021/04/02 01:12:34;;;;;;;40.77;25.60;;;;;;;12.86;67.73;154662.72;5038576;28;20881;-87
2021/04/02 01:15:22;;;;;;;36.77;26.17;;;;;;;12.90;67.41;154673.09;5023451;28;20446;-87
2021/04/02 01:17:58;;;;;;;37.15;24.65;;;;;;;12.91;67.25;154674.41;5037880;28;20410;-87
2021/04/02 01:20:34;;;;;;;32.20;23.50;;;;;;;12.83;67.43;154654.94;5023325;28;20217;-87
2021/04/02 01:23:13;;;;;;;32.80;21.93;;;;;;;12.83;67.23;154656.25;5020911;28;20460;-86
2021/04/02 01:25:51;;;;;;;30.60;22.77;;;;;;;12.77;66.58;154639.38;5042173;28;20446;-87
2021/04/02 01:28:54;;;;;;;27.17;19.20;;;;;;;12.70;66.78;154622.53;5023289;28;20445;-87
2021/04/02 01:31:30;;;;;;;30.00;18.90;;;;;;;12.60;66.57;154595.28;5039935;28;20419;-86
2021/04/02 01:34:06;;;;;;;25.67;18.60;;;;;;;12.56;66.63;154584.91;5023429;28;20453;-87
2021/04/02 01:36:43;;;;;;;24.70;17.40;;;;;;;12.49;66.49;154566.75;5023286;28;20844;-86
2021/04/02 01:39:19;;;;;;;23.77;16.87;;;;;;;12.40;66.80;154543.41;5023445;28;20447;-86
2021/04/02 01:41:56;;;;;;;23.53;16.97;;;;;;;12.38;67.04;154539.53;5038440;28;20438;-87
2021/04/02 01:44:36;;;;;;;23.07;15.50;;;;;;;12.36;67.01;154533.03;5038368;28;20471;-86
2021/04/02 01:47:12;;;;;;;18.10;14.70;;;;;;;12.27;67.05;154509.69;5003087;28;20443;-86
2021/04/02 01:49:47;;;;;;;20.65;14.48;;;;;;;12.14;67.35;154478.59;5019612;28;20434;-87
2021/04/02 01:52:24;;;;;;;26.13;17.63;;;;;;;12.19;67.48;154491.56;5030787;28;20208;-86
2021/04/02 01:55:01;;;;;;;21.93;16.07;;;;;;;12.16;67.30;154483.78;5038277;28;20443;-86
2021/04/02 01:57:39;;;;;;;19.30;14.23;;;;;;;12.18;67.31;154488.94;5028642;28;20439;-86
2021/04/02 02:00:20;;;;;;;19.93;14.27;;;;;;;12.10;67.72;154466.88;5017904;28;20510;-87
2021/04/02 02:03:01;;;;;;;19.67;14.27;;;;;;;12.03;67.73;154450.06;5040959;28;20448;-86
2021/04/02 02:05:40;;;;;;;17.63;13.60;;;;;;;11.99;67.61;154438.41;5002810;28;20444;-86
2021/04/02 02:08:32;;;;;;;20.07;13.70;;;;;;;12.01;67.74;154443.59;5002568;28;20530;-86
2021/04/02 02:11:10;;;;;;;18.70;12.83;;;;;;;11.92;67.91;154421.53;5011775;28;20441;-86
2021/04/02 02:13:51;;;;;;;18.67;12.93;;;;;;;11.88;68.18;154411.19;5002971;28;20790;-87
2021/04/02 02:16:34;;;;;;;15.90;13.43;;;;;;;11.77;68.49;154382.66;5031533;28;20457;-86
2021/04/02 02:19:15;;;;;;;18.60;13.80;;;;;;;11.77;68.62;154381.38;5022283;28;20439;-87
2021/04/02 02:21:52;;;;;;;20.90;13.53;;;;;;;11.71;68.92;154367.09;5055052;28;20933;-86
2021/04/02 02:24:30;;;;;;;20.70;14.30;;;;;;;11.67;69.33;154355.41;5035374;28;20833;-86
2021/04/02 02:27:07;;;;;;;15.93;11.87;;;;;;;11.67;69.07;154355.41;5037246;28;20817;-87
2021/04/02 02:29:44;;;;;;;17.13;12.37;;;;;;;11.59;69.18;154335.97;5021971;28;20441;-87
2021/04/02 02:32:21;;;;;;;16.53;12.10;;;;;;;11.53;69.59;154320.41;5022051;28;20889;-87
2021/04/02 02:34:57;;;;;;;15.83;11.03;;;;;;;11.54;69.60;154323.03;5037312;28;20450;-87
2021/04/02 02:37:34;;;;;;;12.63;10.40;;;;;;;11.53;69.51;154320.41;5053894;28;20500;-87
2021/04/02 02:40:13;;;;;;;15.10;10.83;;;;;;;11.48;70.01;154307.47;5021758;28;20483;-87
2021/04/02 02:42:49;;;;;;;13.47;10.30;;;;;;;11.44;69.54;154297.06;5001828;28;20441;-86
2021/04/02 02:45:25;;;;;;;14.03;9.87;;;;;;;11.39;70.15;154285.41;5035426;28;20463;-86
2021/04/02 02:48:02;;;;;;;16.80;10.40;;;;;;;11.37;69.82;154280.25;5037348;28;20526;-87
2021/04/02 02:50:44;;;;;;;11.17;9.60;;;;;;;11.33;69.92;154268.59;5036069;28;20463;-87
2021/04/02 02:53:21;;;;;;;11.90;9.63;;;;;;;11.30;70.07;154260.81;5036764;28;20475;-86
2021/04/02 02:55:59;;;;;;;13.30;10.40;;;;;;;11.30;70.01;154262.13;5036786;28;20969;-87
2021/04/02 02:58:39;;;;;;;15.73;9.93;;;;;;;11.24;70.50;154245.25;5021360;28;20546;-87
2021/04/02 03:01:16;;;;;;;12.33;9.93;;;;;;;11.18;70.63;154229.72;5037638;28;20513;-87
2021/04/02 03:03:54;;;;;;;11.00;8.67;;;;;;;11.16;70.21;154225.84;5021616;28;20479;-88
2021/04/02 03:06:34;;;;;;;10.53;9.43;;;;;;;11.16;70.69;154225.84;5036410;28;20531;-87
2021/04/02 03:09:11;;;;;;;14.23;9.40;;;;;;;11.11;70.75;154212.88;5036184;28;20802;-87
2021/04/02 03:11:47;;;;;;;12.00;8.80;;;;;;;11.05;71.01;154196.03;5036419;28;20958;-87
2021/04/02 03:14:24;;;;;;;10.40;8.17;;;;;;;10.95;71.19;154172.75;5018120;28;20436;-87
2021/04/02 03:17:04;;;;;;;11.20;9.03;;;;;;;10.94;71.07;154168.81;5001340;28;20522;-87
2021/04/02 03:19:43;;;;;;;10.73;7.97;;;;;;;10.87;70.76;154150.72;5020588;28;20460;-87
2021/04/02 03:22:29;;;;;;;10.40;7.20;;;;;;;10.75;71.55;154119.66;5036586;28;20433;-87
2021/04/02 03:25:26;;;;;;;12.40;8.20;;;;;;;10.64;71.93;154092.47;5056050;28;20463;-87
2021/04/02 03:28:09;;;;;;;12.23;8.27;;;;;;;10.60;71.82;154082.06;5025584;28;20466;-87
2021/04/02 03:30:50;;;;;;;10.47;8.37;;;;;;;10.42;72.89;154034.16;5028650;28;20436;-87
2021/04/02 03:33:32;;;;;;;9.57;7.50;;;;;;;10.38;73.15;154025.09;5027487;28;20489;-87
2021/04/02 03:36:30;;;;;;;9.57;7.50;;;;;;;10.35;73.45;154017.38;5036235;28;20443;-87
2021/04/02 03:39:17;;;;;;;12.23;9.30;;;;;;;10.27;74.02;153997.91;5020784;28;20861;-87
2021/04/02 03:41:54;;;;;;;15.33;9.87;;;;;;;10.22;74.34;153984.97;5052972;28;20468;-87
2021/04/02 03:44:31;;;;;;;13.03;9.10;;;;;;;10.17;74.57;153970.72;5036975;28;20461;-87
2021/04/02 03:47:11;;;;;;;12.03;9.03;;;;;;;10.16;73.25;153968.16;5019761;28;20474;-86
2021/04/02 03:49:48;;;;;;;13.63;8.10;;;;;;;10.16;72.27;153968.16;5053509;28;20795;-87
2021/04/02 03:52:30;;;;;;;7.97;6.87;;;;;;;10.07;71.77;153944.81;5035360;28;20449;-87
2021/04/02 03:55:07;;;;;;;11.20;6.63;;;;;;;9.99;71.87;153924.09;5034728;28;20526;-87
2021/04/02 03:57:43;;;;;;;10.53;7.77;;;;;;;9.90;71.97;153902.06;5036994;28;20887;-87
2021/04/02 04:00:27;;;;;;;10.40;6.90;;;;;;;9.82;71.53;153880.13;5032924;28;20480;-87
2021/04/02 04:03:11;;;;;;;8.50;6.37;;;;;;;9.58;70.89;153819.31;5011749;28;20451;-86
2021/04/02 04:05:49;;;;;;;9.30;6.50;;;;;;;9.50;71.07;153799.91;5031448;28;20450;-84
2021/04/02 04:08:27;;;;;;;8.47;5.13;;;;;;;9.43;71.33;153781.75;5000621;28;20846;-85
2021/04/02 04:11:08;;;;;;;8.83;6.50;;;;;;;9.45;71.58;153785.69;5017161;28;20446;-84
2021/04/02 04:13:46;;;;;;;7.93;6.70;;;;;;;9.45;71.09;153786.94;5020590;28;20520;-86
2021/04/02 04:16:23;;;;;;;8.80;7.07;;;;;;;9.31;71.66;153750.75;5053444;28;20433;-85
2021/04/02 04:19:01;;;;;;;9.00;6.67;;;;;;;9.24;70.74;153732.59;5046313;28;20420;-85
2021/04/02 04:21:45;;;;;;;8.30;5.10;;;;;;;9.25;70.49;153733.91;5032680;28;20483;-85
2021/04/02 04:24:29;;;;;;;7.03;5.67;;;;;;;9.17;69.33;153714.50;5035216;28;20465;-85
2021/04/02 04:27:06;;;;;;;6.30;4.63;;;;;;;9.11;69.00;153698.97;5035561;28;20441;-85
2021/04/02 04:29:45;;;;;;;7.23;5.00;;;;;;;9.06;68.78;153686.06;5051825;28;21215;-85
2021/04/02 04:32:20;;;;;;;6.80;4.80;;;;;;;8.93;68.91;153652.44;5015769;28;20546;-85
2021/04/02 04:34:56;;;;;;;7.23;4.97;;;;;;;8.97;68.51;153664.09;5031921;28;20433;-84
2021/04/02 04:37:31;;;;;;;6.80;5.00;;;;;;;8.80;68.86;153618.81;5051695;28;20915;-84
2021/04/02 04:40:09;;;;;;;7.40;5.33;;;;;;;8.69;69.61;153591.66;5035067;28;20495;-85
2021/04/02 04:42:46;;;;;;;7.00;4.93;;;;;;;8.68;69.33;153589.13;5019356;28;20490;-84
2021/04/02 04:45:22;;;;;;;7.57;5.47;;;;;;;8.69;69.53;153591.66;5053065;28;20477;-84
2021/04/02 04:47:58;;;;;;;6.63;4.27;;;;;;;8.60;69.05;153567.13;5032302;28;20948;-85
2021/04/02 04:50:34;;;;;;;7.03;5.03;;;;;;;8.62;68.64;153572.28;5043289;28;20538;-85
2021/04/02 04:53:13;;;;;;;7.97;5.17;;;;;;;8.48;67.96;153537.38;5013187;28;20430;-85
2021/04/02 04:55:50;;;;;;;8.37;4.60;;;;;;;8.40;68.15;153518.00;5034182;28;20443;-85
2021/04/02 04:58:29;;;;;;;7.70;4.50;;;;;;;8.25;68.30;153479.19;5052564;28;20431;-85
2021/04/02 05:01:07;;;;;;;7.33;4.57;;;;;;;8.26;68.33;153481.75;5049689;28;20884;-86
2021/04/02 05:03:43;;;;;;;5.97;4.50;;;;;;;8.12;68.75;153445.59;5052483;28;20468;-85
2021/04/02 05:06:19;;;;;;;6.90;4.10;;;;;;;8.13;68.28;153448.13;5033575;28;20456;-85
2021/04/02 05:08:54;;;;;;;6.13;3.97;;;;;;;8.20;68.14;153466.28;5027462;28;20443;-86
2021/04/02 05:11:32;;;;;;;7.67;3.87;;;;;;;8.18;67.66;153459.81;5019057;28;20802;-86
2021/04/02 05:14:08;;;;;;;6.80;4.30;;;;;;;8.08;67.76;153435.22;5016321;28;20542;-86
2021/04/02 05:16:43;;;;;;;5.53;3.67;;;;;;;8.08;67.53;153435.22;5053527;28;20444;-86
2021/04/02 05:19:19;;;;;;;5.10;3.77;;;;;;;8.04;67.38;153424.91;5054442;28;20445;-85
2021/04/02 05:21:54;;;;;;;4.10;3.57;;;;;;;8.01;67.54;153415.84;5016592;28;20439;-86
2021/04/02 05:24:31;;;;;;;5.23;3.50;;;;;;;8.02;67.35;153419.75;5070698;28;20459;-86
2021/04/02 05:27:08;;;;;;;5.40;4.03;;;;;;;7.99;67.51;153412.00;5031129;28;20832;-86
2021/04/02 05:29:43;;;;;;;4.70;3.17;;;;;;;7.94;68.00;153400.34;5038523;28;20487;-85
2021/04/02 05:32:18;;;;;;;7.50;4.00;;;;;;;7.99;67.82;153412.00;5018557;28;20555;-85
2021/04/02 05:34:53;;;;;;;5.03;3.78;;;;;;;7.99;68.05;153413.25;5034801;28;20463;-85
2021/04/02 05:37:28;;;;;;;6.03;4.40;;;;;;;7.89;67.97;153387.41;5037745;28;20211;-85
2021/04/02 05:40:05;;;;;;;5.37;3.83;;;;;;;7.84;67.94;153373.19;5055819;28;20464;-86
2021/04/02 05:42:47;;;;;;;4.87;3.83;;;;;;;7.82;67.89;153368.03;5039833;28;20457;-85
2021/04/02 05:45:23;;;;;;;5.87;3.77;;;;;;;7.79;68.71;153361.59;5055401;28;20480;-85
2021/04/02 05:48:02;;;;;;;5.43;3.80;;;;;;;7.79;68.55;153360.28;5033534;28;20440;-85
2021/04/02 05:50:38;;;;;;;4.60;3.67;;;;;;;7.91;68.10;153391.31;5037568;28;20452;-85
2021/04/02 05:53:13;;;;;;;6.10;4.00;;;;;;;7.94;67.52;153399.09;5037360;28;20451;-86
2021/04/02 05:55:49;;;;;;;4.80;4.00;;;;;;;8.00;67.48;153414.53;5019970;28;20445;-85
2021/04/02 05:58:26;;;;;;;7.97;4.40;;;;;;;7.94;68.09;153399.09;5037369;28;20440;-85
2021/04/02 06:01:01;;;;;;;5.00;4.00;;;;;;;7.95;67.78;153401.63;5049173;28;20487;-86
2021/04/02 06:03:36;;;;;;;5.43;4.33;;;;;;;8.06;67.96;153430.06;5030635;28;20456;-86
2021/04/02 06:06:13;;;;;;;6.43;4.60;;;;;;;8.31;66.63;153493.47;5034281;28;20459;-86
2021/04/02 06:08:48;;;;;;;6.23;4.73;;;;;;;8.42;66.47;153521.84;5040107;28;20451;-85
2021/04/02 06:11:23;;;;;;;5.30;4.63;;;;;;;8.58;66.13;153564.53;5045448;28;20483;-85
2021/04/02 06:13:59;;;;;;;4.53;4.10;;;;;;;8.88;65.30;153639.50;5046428;28;20455;-85
2021/04/02 06:16:35;;;;;;;6.80;4.90;;;;;;;9.11;64.20;153698.97;5035616;28;20555;-83
2021/04/02 06:19:10;;;;;;;6.10;4.30;;;;;;;9.25;63.76;153735.22;5067133;28;20435;-85
2021/04/02 06:21:47;;;;;;;7.73;4.83;;;;;;;9.35;63.39;153759.75;5048475;28;20449;-85
2021/04/02 06:24:38;;;;;;;6.60;5.00;;;;;;;9.55;62.59;153812.84;5021320;28;21088;-85
2021/04/02 06:27:14;;;;;;;11.33;6.13;;;;;;;9.65;62.26;153838.72;5037257;28;20461;-85
2021/04/02 06:30:01;;;;;;;6.50;4.80;;;;;;;9.78;61.91;153872.34;5036050;28;20477;-84
2021/04/02 06:32:38;;;;;;;7.63;5.73;;;;;;;9.78;61.74;153872.34;5037380;28;20433;-85
2021/04/02 06:35:14;;;;;;;6.60;5.20;;;;;;;9.91;61.55;153903.38;5033099;28;20458;-85
2021/04/02 06:37:53;;;;;;;6.70;5.20;;;;;;;9.72;61.58;153856.81;5034073;28;20421;-85
2021/04/02 06:40:30;;;;;;;6.90;5.47;;;;;;;9.42;62.27;153777.91;5037115;28;20493;-85
2021/04/02 06:43:05;;;;;;;6.90;6.20;;;;;;;9.39;62.30;153770.13;5037409;28;20460;-85
2021/04/02 06:45:45;;;;;;;7.50;5.40;;;;;;;9.33;63.01;153755.91;5036324;28;20481;-86
2021/04/02 06:48:20;;;;;;;8.23;6.07;;;;;;;9.55;62.78;153811.53;5056931;28;20443;-85
2021/04/02 06:50:56;;;;;;;7.80;5.40;;;;;;;9.90;61.53;153902.06;5021465;28;20444;-85
2021/04/02 06:53:32;;;;;;;6.10;5.40;;;;;;;10.11;60.27;153955.19;5070010;28;20438;-85
2021/04/02 06:56:10;;;;;;;7.53;5.73;;;;;;;10.26;59.91;153994.03;5037056;28;20867;-87
2021/04/02 06:58:45;;;;;;;8.67;6.03;;;;;;;10.09;60.36;153949.97;5070013;28;20443;-85
2021/04/02 07:01:22;;;;;;;6.93;5.13;;;;;;;10.47;59.42;154047.13;5049491;28;20485;-85
2021/04/02 07:03:58;;;;;;;6.47;5.27;;;;;;;10.30;59.17;154004.38;5051632;28;20946;-86
2021/04/02 07:06:33;;;;;;;7.27;6.27;;;;;;;10.43;58.72;154038.09;5051796;28;21121;-85
2021/04/02 07:09:09;;;;;;;6.00;4.90;;;;;;;10.68;58.98;154102.78;5059015;28;20426;-86
2021/04/02 07:11:46;;;;;;;7.27;4.80;;;;;;;11.16;57.71;154224.53;5019725;28;20851;-86
2021/04/02 07:14:22;;;;;;;6.67;4.70;;;;;;;11.57;56.71;154330.75;5017235;28;20472;-86
2021/04/02 07:16:58;;;;;;;6.10;4.53;;;;;;;11.77;55.68;154382.66;5031781;28;20449;-86
2021/04/02 07:19:34;;;;;;;5.40;4.77;;;;;;;12.15;55.25;154479.91;5064392;28;20197;-86
2021/04/02 07:22:10;;;;;;;7.50;5.30;;;;;;;12.15;54.51;154479.91;5043458;28;20446;-87
2021/04/02 07:24:45;;;;;;;7.17;5.50;;;;;;;12.23;53.90;154501.91;5039514;28;20462;-87
2021/04/02 07:27:21;;;;;;;7.60;5.53;;;;;;;12.40;53.56;154543.41;5001838;28;20462;-87
2021/04/02 07:29:56;;;;;;;11.67;6.27;;;;;;;12.37;53.54;154535.59;5033051;28;20532;-87
2021/04/02 07:32:33;;;;;;;9.70;7.40;;;;;;;12.07;54.52;154460.41;5029030;28;20926;-86
2021/04/02 07:35:15;;;;;;;6.00;5.40;;;;;;;12.74;53.65;154631.56;5036243;28;20423;-87
2021/04/02 07:37:52;;;;;;;8.10;6.00;;;;;;;11.87;53.74;154408.56;5037124;28;20436;-87
2021/04/02 07:40:29;;;;;;;7.90;5.83;;;;;;;11.56;55.97;154329.50;5053859;28;20524;-86
2021/04/02 07:43:06;;;;;;;9.27;6.20;;;;;;;12.36;53.87;154533.03;5035822;28;20788;-87
2021/04/02 07:45:42;;;;;;;10.67;6.83;;;;;;;12.67;53.80;154613.44;5020722;28;20480;-86
2021/04/02 07:48:22;;;;;;;6.73;6.07;;;;;;;12.69;53.00;154618.63;5035431;28;20937;-86
2021/04/02 07:51:01;;;;;;;7.97;6.70;;;;;;;12.49;53.04;154566.75;5001393;28;20464;-87
2021/04/02 07:53:42;;;;;;;7.47;6.53;;;;;;;12.66;52.96;154612.13;5015856;28;20442;-87
2021/04/02 07:56:18;;;;;;;8.03;6.90;;;;;;;12.23;53.69;154499.34;5016067;28;20532;-86
2021/04/02 07:58:54;;;;;;;9.20;6.70;;;;;;;11.91;55.04;154418.97;5032379;28;20800;-86
2021/04/02 08:01:29;;;;;;;8.60;6.83;;;;;;;12.18;54.61;154487.63;5023702;28;20435;-87
2021/04/02 08:04:05;;;;;;;8.27;6.53;;;;;;;12.20;54.05;154492.84;5022424;28;20935;-87
2021/04/02 08:06:42;;;;;;;8.07;6.53;;;;;;;12.10;54.08;154468.19;5035129;28;20451;-87
2021/04/02 08:09:17;;;;;;;9.87;6.73;;;;;;;12.33;54.61;154526.56;5035089;28;20446;-87
2021/04/02 08:11:57;;;;;;;8.97;7.10;;;;;;;12.15;54.53;154481.16;5053278;28;20928;-87
2021/04/02 08:14:33;;;;;;;9.67;7.17;;;;;;;12.16;54.54;154483.78;5030269;28;20491;-87
2021/04/02 08:17:12;;;;;;;7.57;5.97;;;;;;;12.13;54.58;154474.66;5060856;28;20935;-87
2021/04/02 08:19:48;;;;;;;8.40;7.50;;;;;;;12.08;54.43;154461.72;5037324;28;20443;-87
2021/04/02 08:22:25;;;;;;;8.33;7.47;;;;;;;12.26;54.28;154507.13;5047718;28;20447;-88
2021/04/02 08:25:01;;;;;;;8.80;6.90;;;;;;;12.43;54.39;154551.19;5034530;28;20560;-87
2021/04/02 08:27:37;;;;;;;8.10;6.83;;;;;;;12.49;54.11;154566.75;5021136;28;20457;-87
2021/04/02 08:30:15;;;;;;;10.20;7.73;;;;;;;12.09;54.62;154465.63;5033090;28;20448;-86
2021/04/02 08:32:51;;;;;;;11.00;7.90;;;;;;;11.79;55.71;154387.84;5045454;28;20837;-87
2021/04/02 08:35:27;;;;;;;9.83;6.70;;;;;;;12.52;54.08;154574.53;5055813;28;20443;-87
2021/04/02 08:38:04;;;;;;;9.53;7.43;;;;;;;12.71;54.24;154623.78;5028720;28;20451;-87
2021/04/02 08:40:39;;;;;;;8.87;7.40;;;;;;;12.31;54.94;154520.09;5042606;28;20443;-86
2021/04/02 08:43:18;;;;;;;8.90;6.90;;;;;;;11.85;55.79;154402.09;5036664;28;20450;-86
2021/04/02 08:45:53;;;;;;;10.00;7.93;;;;;;;11.74;56.54;154374.88;5021554;28;20471;-87
2021/04/02 08:48:28;;;;;;;15.30;10.47;;;;;;;11.29;57.48;154259.53;5035003;28;20443;-86
2021/04/02 08:51:05;;;;;;;11.30;8.50;;;;;;;11.42;57.15;154293.19;5016587;28;20501;-87
2021/04/02 08:53:40;;;;;;;12.27;9.10;;;;;;;11.15;58.35;154223.22;5046537;28;20788;-86
2021/04/02 08:56:16;;;;;;;10.27;7.87;;;;;;;10.81;60.07;154136.47;5051455;28;20447;-86
2021/04/02 08:58:52;;;;;;;12.20;9.20;;;;;;;11.17;58.91;154227.16;5023736;28;20439;-85
2021/04/02 09:01:27;;;;;;;10.57;9.23;;;;;;;11.21;58.83;154237.47;5034195;28;20463;-85
2021/04/02 09:04:02;;;;;;;11.70;9.00;;;;;;;11.33;59.35;154269.84;5026415;28;20847;-86
2021/04/02 09:06:38;;;;;;;8.83;7.93;;;;;;;11.31;58.61;154263.38;5063859;28;20445;-86
2021/04/02 09:09:16;;;;;;;9.60;8.63;;;;;;;10.93;59.83;154167.53;5069209;28;20483;-86
2021/04/02 09:11:54;;;;;;;13.18;9.57;;;;;;;10.44;61.11;154040.63;5023264;28;20539;-86
2021/04/02 09:14:29;;;;;;;13.13;8.67;;;;;;;10.74;60.99;154118.34;5019134;28;20619;-85
2021/04/02 09:17:04;;;;;;;12.90;9.57;;;;;;;11.20;59.13;154234.94;5044939;28;20918;-86
2021/04/02 09:19:39;;;;;;;11.47;8.17;;;;;;;11.29;59.42;154259.53;5050650;28;20442;-86
2021/04/02 09:22:17;;;;;;;11.77;8.67;;;;;;;11.71;59.38;154367.09;5039059;28;20448;-87
2021/04/02 09:24:52;;;;;;;11.60;9.17;;;;;;;11.69;58.40;154361.94;5046813;28;20458;-86
2021/04/02 09:27:28;;;;;;;10.37;8.47;;;;;;;11.85;58.03;154402.09;5038788;28;20782;-86
2021/04/02 09:30:05;;;;;;;11.60;10.10;;;;;;;11.71;58.27;154367.09;5023386;28;20454;-86
2021/04/02 09:32:41;;;;;;;12.27;9.17;;;;;;;11.18;59.61;154231.00;5055556;28;20486;-86
2021/04/02 09:35:16;;;;;;;11.43;9.17;;;;;;;10.96;61.18;154175.31;5023041;28;20495;-86
2021/04/02 09:37:52;;;;;;;11.40;9.20;;;;;;;10.98;60.57;154180.53;5023359;28;20427;-87
2021/04/02 09:40:28;;;;;;;12.13;8.80;;;;;;;11.36;60.06;154276.34;5023187;28;20459;-87
2021/04/02 09:43:04;;;;;;;11.53;8.77;;;;;;;11.26;60.35;154250.44;5023452;28;20450;-87
2021/04/02 09:45:39;;;;;;;11.80;9.07;;;;;;;11.10;60.25;154208.97;5032136;28;20479;-86
2021/04/02 09:48:22;;;;;;;11.90;8.70;;;;;;;11.07;59.74;154201.25;5035416;28;20436;-86
2021/04/02 09:50:57;;;;;;;11.67;9.90;;;;;;;11.42;59.83;154291.91;5035466;28;20546;-87
2021/04/02 09:53:33;;;;;;;12.10;8.90;;;;;;;11.58;58.87;154333.38;5031593;28;20815;-86
2021/04/02 09:56:08;;;;;;;12.30;9.33;;;;;;;11.73;58.54;154372.28;5018998;28;20443;-87
2021/04/02 09:58:43;;;;;;;10.20;8.57;;;;;;;11.41;58.70;154289.34;5038380;28;20435;-86
2021/04/02 10:01:19;;;;;;;12.07;9.27;;;;;;;11.23;57.83;154243.97;5028932;28;20471;-87
2021/04/02 10:03:54;;;;;;;10.33;8.33;;;;;;;10.80;59.10;154133.84;5034536;28;20440;-86
2021/04/02 10:06:29;;;;;;;16.10;10.00;;;;;;;10.81;60.34;154136.47;5054331;28;20454;-86
2021/04/02 10:09:06;;;;;;;10.67;8.67;;;;;;;10.95;59.94;154171.44;5032268;28;20824;-86
2021/04/02 10:11:45;;;;;;;9.70;7.63;;;;;;;10.96;59.98;154175.31;5032949;28;20447;-87
2021/04/02 10:14:20;;;;;;;12.47;10.70;;;;;;;10.83;59.57;154141.63;5028852;28;20451;-86
2021/04/02 10:16:55;;;;;;;17.20;9.63;;;;;;;10.89;59.55;154157.19;5015188;28;20444;-86
2021/04/02 10:19:31;;;;;;;12.73;9.70;;;;;;;10.98;59.20;154179.22;5031887;28;20808;-86
2021/04/02 10:22:06;;;;;;;10.23;8.30;;;;;;;11.15;58.94;154221.94;5056243;28;20442;-87
2021/04/02 10:24:42;;;;;;;10.37;9.27;;;;;;;11.45;58.04;154300.97;5037756;28;20465;-87
2021/04/02 10:27:17;;;;;;;10.40;9.00;;;;;;;11.50;56.91;154312.63;5020559;28;20440;-86
2021/04/02 10:29:52;;;;;;;12.60;8.57;;;;;;;11.72;56.29;154369.72;5037131;28;20432;-88
2021/04/02 10:32:28;;;;;;;8.47;7.57;;;;;;;12.03;55.33;154450.06;5021921;28;20922;-87
2021/04/02 10:35:04;;;;;;;10.03;8.10;;;;;;;11.52;55.86;154317.81;5037033;28;20435;-87
2021/04/02 10:37:39;;;;;;;11.27;9.00;;;;;;;11.37;56.14;154280.25;5031864;28;20513;-87
2021/04/02 10:40:17;;;;;;;12.33;8.90;;;;;;;11.34;55.79;154271.16;5017693;28;20440;-86
2021/04/02 10:42:52;;;;;;;9.50;8.50;;;;;;;11.28;56.01;154255.66;5036427;28;20533;-87
2021/04/02 10:45:28;;;;;;;11.47;8.80;;;;;;;11.19;56.68;154233.63;5052631;28;20506;-87
2021/04/02 10:48:05;;;;;;;12.57;9.33;;;;;;;11.12;56.68;154215.44;5036626;28;20946;-87
2021/04/02 10:50:41;;;;;;;14.00;9.13;;;;;;;11.11;57.25;154212.88;5050233;28;20455;-86
2021/04/02 10:53:17;;;;;;;10.60;8.60;;;;;;;11.11;57.22;154211.59;5047576;28;20441;-86
2021/04/02 10:55:55;;;;;;;13.30;10.00;;;;;;;10.86;58.16;154149.41;5023827;28;20436;-87
2021/04/02 10:58:31;;;;;;;14.47;10.10;;;;;;;10.78;58.21;154128.69;5036405;28;20458;-83
2021/04/02 11:01:07;;;;;;;11.57;9.10;;;;;;;11.02;57.92;154190.84;5019715;28;20466;-87
2021/04/02 11:03:42;;;;;;;11.40;9.03;;;;;;;11.47;57.13;154304.84;5055340;28;20542;-86
2021/04/02 11:06:17;;;;;;;9.23;8.10;;;;;;;11.30;55.55;154262.13;5021215;28;20489;-86
2021/04/02 11:08:52;;;;;;;11.47;9.90;;;;;;;11.34;56.86;154271.16;5036415;28;20438;-86
2021/04/02 11:11:28;;;;;;;10.07;8.73;;;;;;;11.58;56.86;154333.38;5031015;28;20438;-86
2021/04/02 11:14:04;;;;;;;11.83;9.80;;;;;;;11.31;56.28;154263.38;5061862;28;20446;-87
2021/04/02 11:16:39;;;;;;;12.20;9.13;;;;;;;11.50;55.91;154312.63;5058796;28;20451;-87
2021/04/02 11:19:14;;;;;;;12.20;9.20;;;;;;;11.71;54.88;154367.09;5064354;28;20423;-87
2021/04/02 11:21:49;;;;;;;10.90;8.90;;;;;;;11.68;54.22;154357.97;5042503;28;20435;-86
2021/04/02 11:24:26;;;;;;;10.07;8.43;;;;;;;11.37;54.82;154278.94;5040806;28;20463;-86
2021/04/02 11:27:02;;;;;;;9.97;8.17;;;;;;;11.61;55.20;154341.16;5043609;28;20451;-86
2021/04/02 11:29:38;;;;;;;10.23;8.33;;;;;;;11.51;54.61;154315.25;5031948;28;20966;-86
2021/04/02 11:32:13;;;;;;;9.80;8.80;;;;;;;11.48;52.55;154307.47;5062212;28;20813;-86
2021/04/02 11:34:48;;;;;;;10.70;8.90;;;;;;;11.19;53.69;154232.31;5040688;28;20447;-86
2021/04/02 11:37:23;;;;;;;10.47;8.63;;;;;;;10.90;53.04;154159.78;5036885;28;20482;-85
2021/04/02 11:39:59;;;;;;;9.47;8.30;;;;;;;10.88;53.69;154154.56;5048586;28;20446;-84
2021/04/02 11:42:35;;;;;;;9.13;8.00;;;;;;;10.97;53.66;154176.59;5035852;28;20538;-85
2021/04/02 11:45:11;;;;;;;11.80;7.40;;;;;;;11.16;53.85;154225.84;5052650;28;21032;-85
2021/04/02 11:47:47;;;;;;;11.83;8.60;;;;;;;11.27;53.89;154253.03;5051032;28;20946;-84
2021/04/02 11:50:22;;;;;;;8.60;6.40;;;;;;;11.37;54.56;154280.25;5034298;28;20458;-84
2021/04/02 11:52:57;;;;;;;8.40;7.20;;;;;;;11.39;53.98;154284.13;5019780;28;20845;-84
2021/04/02 11:55:32;;;;;;;9.87;8.03;;;;;;;11.38;53.93;154281.56;5049202;28;20193;-85
2021/04/02 11:58:09;;;;;;;8.77;7.17;;;;;;;11.38;53.00;154281.56;5030944;28;20458;-85
2021/04/02 12:00:44;;;;;;;9.70;7.87;;;;;;;11.33;53.42;154268.59;5039375;28;20466;-85
2021/04/02 12:03:20;;;;;;;7.87;7.07;;;;;;;11.28;52.36;154255.66;5036413;28;20455;-84
2021/04/02 12:05:54;;;;;;;11.60;6.97;;;;;;;11.48;52.86;154307.47;5035384;28;20486;-86
2021/04/02 12:08:30;;;;;;;7.90;6.70;;;;;;;11.28;53.13;154255.66;5052913;28;20416;-86